sensor_id;sensor_type;location;lat;lon;timestamp;P1;durP1;ratioP1;P2;durP2;ratioP2
61358;SDS011;47228;46.762;23.598;2023-05-07T00:00:27;19.30;;;9.80;;
61358;SDS011;47228;46.762;23.598;2023-05-07T00:03:15;19.30;;;11.10;;
61358;SDS011;47228;46.762;23.598;2023-05-07T00:05:43;18.20;;;10.70;;
61358;SDS011;47228;46.762;23.598;2023-05-07T00:08:11;16.70;;;10.30;;
61358;SDS011;47228;46.762;23.598;2023-05-07T00:10:39;20.20;;;11.50;;
61358;SDS011;47228;46.762;23.598;2023-05-07T00:13:07;16.00;;;10.80;;
61358;SDS011;47228;46.762;23.598;2023-05-07T00:15:35;18.20;;;11.20;;
61358;SDS011;47228;46.762;23.598;2023-05-07T00:18:03;19.50;;;10.90;;
61358;SDS011;47228;46.762;23.598;2023-05-07T00:20:31;20.60;;;10.70;;
61358;SDS011;47228;46.762;23.598;2023-05-07T00:23:02;18.90;;;10.60;;
61358;SDS011;47228;46.762;23.598;2023-05-07T00:25:30;18.60;;;9.90;;
61358;SDS011;47228;46.762;23.598;2023-05-07T00:27:58;19.00;;;10.90;;
61358;SDS011;47228;46.762;23.598;2023-05-07T00:30:31;18.30;;;11.40;;
61358;SDS011;47228;46.762;23.598;2023-05-07T00:32:58;20.80;;;11.30;;
61358;SDS011;47228;46.762;23.598;2023-05-07T00:35:27;20.50;;;11.40;;
61358;SDS011;47228;46.762;23.598;2023-05-07T00:37:58;18.60;;;11.50;;
61358;SDS011;47228;46.762;23.598;2023-05-07T00:40:26;20.80;;;10.90;;
61358;SDS011;47228;46.762;23.598;2023-05-07T00:42:54;17.00;;;11.10;;
61358;SDS011;47228;46.762;23.598;2023-05-07T00:45:26;19.60;;;10.90;;
61358;SDS011;47228;46.762;23.598;2023-05-07T00:47:57;18.00;;;10.70;;
61358;SDS011;47228;46.762;23.598;2023-05-07T00:50:26;19.10;;;10.70;;
61358;SDS011;47228;46.762;23.598;2023-05-07T00:52:55;14.90;;;10.20;;
61358;SDS011;47228;46.762;23.598;2023-05-07T00:55:23;16.50;;;10.70;;
61358;SDS011;47228;46.762;23.598;2023-05-07T00:57:52;17.40;;;9.80;;
61358;SDS011;47228;46.762;23.598;2023-05-07T01:00:20;18.00;;;10.10;;
61358;SDS011;47228;46.762;23.598;2023-05-07T01:02:48;15.10;;;10.00;;
61358;SDS011;47228;46.762;23.598;2023-05-07T01:05:17;18.00;;;10.00;;
61358;SDS011;47228;46.762;23.598;2023-05-07T01:07:48;16.00;;;10.20;;
61358;SDS011;47228;46.762;23.598;2023-05-07T01:10:17;16.70;;;9.70;;
61358;SDS011;47228;46.762;23.598;2023-05-07T01:12:46;17.10;;;10.80;;
61358;SDS011;47228;46.762;23.598;2023-05-07T01:15:15;17.10;;;10.40;;
61358;SDS011;47228;46.762;23.598;2023-05-07T01:17:44;17.80;;;10.00;;
61358;SDS011;47228;46.762;23.598;2023-05-07T01:20:12;21.80;;;10.40;;
61358;SDS011;47228;46.762;23.598;2023-05-07T01:22:41;17.60;;;10.00;;
61358;SDS011;47228;46.762;23.598;2023-05-07T01:25:10;21.60;;;12.20;;
61358;SDS011;47228;46.762;23.598;2023-05-07T01:27:38;18.90;;;10.80;;
61358;SDS011;47228;46.762;23.598;2023-05-07T01:30:06;20.30;;;10.90;;
61358;SDS011;47228;46.762;23.598;2023-05-07T01:32:43;19.90;;;11.60;;
61358;SDS011;47228;46.762;23.598;2023-05-07T01:35:28;20.00;;;12.50;;
61358;SDS011;47228;46.762;23.598;2023-05-07T01:38:01;25.70;;;13.60;;
61358;SDS011;47228;46.762;23.598;2023-05-07T01:40:32;20.50;;;13.00;;
61358;SDS011;47228;46.762;23.598;2023-05-07T01:43:02;20.50;;;12.50;;
61358;SDS011;47228;46.762;23.598;2023-05-07T01:45:30;21.70;;;12.30;;
61358;SDS011;47228;46.762;23.598;2023-05-07T01:47:59;20.10;;;11.80;;
61358;SDS011;47228;46.762;23.598;2023-05-07T01:50:29;22.10;;;12.20;;
61358;SDS011;47228;46.762;23.598;2023-05-07T01:52:59;20.40;;;12.50;;
61358;SDS011;47228;46.762;23.598;2023-05-07T01:55:28;21.00;;;11.90;;
61358;SDS011;47228;46.762;23.598;2023-05-07T01:57:56;21.60;;;12.00;;
61358;SDS011;47228;46.762;23.598;2023-05-07T02:00:24;20.60;;;12.60;;
61358;SDS011;47228;46.762;23.598;2023-05-07T02:02:52;21.70;;;11.20;;
61358;SDS011;47228;46.762;23.598;2023-05-07T02:05:20;19.00;;;12.00;;
61358;SDS011;47228;46.762;23.598;2023-05-07T02:07:48;18.00;;;11.40;;
61358;SDS011;47228;46.762;23.598;2023-05-07T02:10:16;19.90;;;12.30;;
61358;SDS011;47228;46.762;23.598;2023-05-07T02:12:44;21.00;;;10.40;;
61358;SDS011;47228;46.762;23.598;2023-05-07T02:15:12;21.10;;;11.70;;
61358;SDS011;47228;46.762;23.598;2023-05-07T02:17:57;19.00;;;11.30;;
61358;SDS011;47228;46.762;23.598;2023-05-07T02:20:31;16.00;;;9.70;;
61358;SDS011;47228;46.762;23.598;2023-05-07T02:22:59;20.70;;;11.30;;
61358;SDS011;47228;46.762;23.598;2023-05-07T02:25:27;16.70;;;11.10;;
61358;SDS011;47228;46.762;23.598;2023-05-07T02:27:54;18.10;;;11.00;;
61358;SDS011;47228;46.762;23.598;2023-05-07T02:30:22;18.40;;;11.80;;
61358;SDS011;47228;46.762;23.598;2023-05-07T02:32:51;21.30;;;10.40;;
61358;SDS011;47228;46.762;23.598;2023-05-07T02:35:19;23.00;;;10.70;;
61358;SDS011;47228;46.762;23.598;2023-05-07T02:37:47;17.50;;;10.80;;
61358;SDS011;47228;46.762;23.598;2023-05-07T02:40:15;17.10;;;10.20;;
61358;SDS011;47228;46.762;23.598;2023-05-07T02:42:43;16.10;;;9.70;;
61358;SDS011;47228;46.762;23.598;2023-05-07T02:45:11;20.40;;;10.90;;
61358;SDS011;47228;46.762;23.598;2023-05-07T02:47:38;18.90;;;9.60;;
61358;SDS011;47228;46.762;23.598;2023-05-07T02:50:06;17.50;;;9.80;;
61358;SDS011;47228;46.762;23.598;2023-05-07T02:52:35;14.40;;;8.90;;
61358;SDS011;47228;46.762;23.598;2023-05-07T02:55:03;15.40;;;9.60;;
61358;SDS011;47228;46.762;23.598;2023-05-07T02:57:31;17.90;;;10.30;;
61358;SDS011;47228;46.762;23.598;2023-05-07T02:59:59;18.80;;;11.70;;
61358;SDS011;47228;46.762;23.598;2023-05-07T03:02:27;18.00;;;10.10;;
61358;SDS011;47228;46.762;23.598;2023-05-07T03:04:55;17.10;;;9.80;;
61358;SDS011;47228;46.762;23.598;2023-05-07T03:07:22;18.70;;;10.40;;
61358;SDS011;47228;46.762;23.598;2023-05-07T03:09:50;18.30;;;10.00;;
61358;SDS011;47228;46.762;23.598;2023-05-07T03:12:18;18.40;;;10.80;;
61358;SDS011;47228;46.762;23.598;2023-05-07T03:14:46;18.70;;;11.80;;
61358;SDS011;47228;46.762;23.598;2023-05-07T03:17:14;20.60;;;10.80;;
61358;SDS011;47228;46.762;23.598;2023-05-07T03:19:43;16.70;;;9.90;;
61358;SDS011;47228;46.762;23.598;2023-05-07T03:22:11;15.20;;;10.10;;
61358;SDS011;47228;46.762;23.598;2023-05-07T03:24:39;21.70;;;11.20;;
61358;SDS011;47228;46.762;23.598;2023-05-07T03:27:07;18.50;;;10.70;;
61358;SDS011;47228;46.762;23.598;2023-05-07T03:29:35;19.20;;;10.80;;
61358;SDS011;47228;46.762;23.598;2023-05-07T03:32:03;20.10;;;11.30;;
61358;SDS011;47228;46.762;23.598;2023-05-07T03:34:31;20.70;;;10.20;;
61358;SDS011;47228;46.762;23.598;2023-05-07T03:36:59;17.50;;;10.60;;
61358;SDS011;47228;46.762;23.598;2023-05-07T03:39:27;22.90;;;11.40;;
61358;SDS011;47228;46.762;23.598;2023-05-07T03:41:55;23.00;;;11.70;;
61358;SDS011;47228;46.762;23.598;2023-05-07T03:44:23;21.30;;;12.70;;
61358;SDS011;47228;46.762;23.598;2023-05-07T03:46:51;25.00;;;12.20;;
61358;SDS011;47228;46.762;23.598;2023-05-07T03:49:19;21.70;;;12.20;;
61358;SDS011;47228;46.762;23.598;2023-05-07T03:51:47;22.10;;;12.50;;
61358;SDS011;47228;46.762;23.598;2023-05-07T03:54:15;22.00;;;12.60;;
61358;SDS011;47228;46.762;23.598;2023-05-07T03:56:42;23.00;;;12.00;;
61358;SDS011;47228;46.762;23.598;2023-05-07T03:59:11;21.80;;;12.80;;
61358;SDS011;47228;46.762;23.598;2023-05-07T04:01:40;26.20;;;12.90;;
61358;SDS011;47228;46.762;23.598;2023-05-07T04:04:08;22.80;;;12.30;;
61358;SDS011;47228;46.762;23.598;2023-05-07T04:06:36;21.10;;;12.30;;
61358;SDS011;47228;46.762;23.598;2023-05-07T04:09:04;22.10;;;11.80;;
61358;SDS011;47228;46.762;23.598;2023-05-07T04:11:32;27.20;;;13.20;;
61358;SDS011;47228;46.762;23.598;2023-05-07T04:14:00;22.00;;;12.60;;
61358;SDS011;47228;46.762;23.598;2023-05-07T04:16:28;18.20;;;11.90;;
61358;SDS011;47228;46.762;23.598;2023-05-07T04:18:56;22.80;;;12.20;;
61358;SDS011;47228;46.762;23.598;2023-05-07T04:21:24;24.20;;;12.20;;
61358;SDS011;47228;46.762;23.598;2023-05-07T04:23:53;23.90;;;13.10;;
61358;SDS011;47228;46.762;23.598;2023-05-07T04:26:21;24.30;;;12.50;;
61358;SDS011;47228;46.762;23.598;2023-05-07T04:28:49;25.80;;;13.10;;
61358;SDS011;47228;46.762;23.598;2023-05-07T04:31:17;22.70;;;13.60;;
61358;SDS011;47228;46.762;23.598;2023-05-07T04:33:45;22.60;;;12.80;;
61358;SDS011;47228;46.762;23.598;2023-05-07T04:36:13;18.90;;;11.60;;
61358;SDS011;47228;46.762;23.598;2023-05-07T04:38:41;23.40;;;14.20;;
61358;SDS011;47228;46.762;23.598;2023-05-07T04:41:09;20.70;;;12.40;;
61358;SDS011;47228;46.762;23.598;2023-05-07T04:43:37;21.90;;;12.80;;
61358;SDS011;47228;46.762;23.598;2023-05-07T04:46:05;21.60;;;12.80;;
61358;SDS011;47228;46.762;23.598;2023-05-07T04:48:33;23.00;;;13.60;;
61358;SDS011;47228;46.762;23.598;2023-05-07T04:51:01;22.40;;;13.50;;
61358;SDS011;47228;46.762;23.598;2023-05-07T04:53:29;21.90;;;13.10;;
61358;SDS011;47228;46.762;23.598;2023-05-07T04:55:57;20.50;;;11.70;;
61358;SDS011;47228;46.762;23.598;2023-05-07T04:58:25;20.40;;;12.20;;
61358;SDS011;47228;46.762;23.598;2023-05-07T05:00:53;19.60;;;12.40;;
61358;SDS011;47228;46.762;23.598;2023-05-07T05:03:21;23.70;;;13.30;;
61358;SDS011;47228;46.762;23.598;2023-05-07T05:05:50;20.10;;;12.60;;
61358;SDS011;47228;46.762;23.598;2023-05-07T05:08:19;18.60;;;12.50;;
61358;SDS011;47228;46.762;23.598;2023-05-07T05:10:47;19.60;;;12.50;;
61358;SDS011;47228;46.762;23.598;2023-05-07T05:13:17;21.40;;;12.90;;
61358;SDS011;47228;46.762;23.598;2023-05-07T05:15:45;21.40;;;12.50;;
61358;SDS011;47228;46.762;23.598;2023-05-07T05:18:13;19.40;;;12.40;;
61358;SDS011;47228;46.762;23.598;2023-05-07T05:20:41;22.80;;;12.20;;
61358;SDS011;47228;46.762;23.598;2023-05-07T05:23:09;20.90;;;13.00;;
61358;SDS011;47228;46.762;23.598;2023-05-07T05:25:37;24.80;;;11.80;;
61358;SDS011;47228;46.762;23.598;2023-05-07T05:28:06;22.70;;;12.90;;
61358;SDS011;47228;46.762;23.598;2023-05-07T05:30:34;19.60;;;12.20;;
61358;SDS011;47228;46.762;23.598;2023-05-07T05:33:02;36.80;;;13.90;;
61358;SDS011;47228;46.762;23.598;2023-05-07T05:35:30;20.10;;;12.40;;
61358;SDS011;47228;46.762;23.598;2023-05-07T05:37:59;22.00;;;13.20;;
61358;SDS011;47228;46.762;23.598;2023-05-07T05:40:27;23.10;;;13.60;;
61358;SDS011;47228;46.762;23.598;2023-05-07T05:42:55;25.50;;;13.90;;
61358;SDS011;47228;46.762;23.598;2023-05-07T05:45:23;22.20;;;12.90;;
61358;SDS011;47228;46.762;23.598;2023-05-07T05:47:51;23.60;;;14.40;;
61358;SDS011;47228;46.762;23.598;2023-05-07T05:50:19;22.30;;;12.70;;
61358;SDS011;47228;46.762;23.598;2023-05-07T05:52:47;23.60;;;13.40;;
61358;SDS011;47228;46.762;23.598;2023-05-07T05:55:16;20.50;;;13.50;;
61358;SDS011;47228;46.762;23.598;2023-05-07T05:57:44;21.50;;;12.80;;
61358;SDS011;47228;46.762;23.598;2023-05-07T06:00:12;19.70;;;12.60;;
61358;SDS011;47228;46.762;23.598;2023-05-07T06:02:41;20.40;;;12.90;;
61358;SDS011;47228;46.762;23.598;2023-05-07T06:05:10;23.30;;;13.50;;
61358;SDS011;47228;46.762;23.598;2023-05-07T06:07:38;22.40;;;13.10;;
61358;SDS011;47228;46.762;23.598;2023-05-07T06:10:06;21.90;;;12.60;;
61358;SDS011;47228;46.762;23.598;2023-05-07T06:12:35;23.60;;;13.80;;
61358;SDS011;47228;46.762;23.598;2023-05-07T06:15:03;20.20;;;13.70;;
61358;SDS011;47228;46.762;23.598;2023-05-07T06:17:32;24.80;;;13.50;;
61358;SDS011;47228;46.762;23.598;2023-05-07T06:19:59;24.70;;;13.00;;
61358;SDS011;47228;46.762;23.598;2023-05-07T06:22:27;22.40;;;12.50;;
61358;SDS011;47228;46.762;23.598;2023-05-07T06:24:55;17.50;;;12.50;;
61358;SDS011;47228;46.762;23.598;2023-05-07T06:27:23;23.00;;;13.00;;
61358;SDS011;47228;46.762;23.598;2023-05-07T06:29:51;19.40;;;12.40;;
61358;SDS011;47228;46.762;23.598;2023-05-07T06:32:19;19.00;;;12.00;;
61358;SDS011;47228;46.762;23.598;2023-05-07T06:34:47;20.80;;;12.50;;
61358;SDS011;47228;46.762;23.598;2023-05-07T06:37:15;20.20;;;12.90;;
61358;SDS011;47228;46.762;23.598;2023-05-07T06:39:43;19.00;;;12.40;;
61358;SDS011;47228;46.762;23.598;2023-05-07T06:42:11;19.40;;;13.00;;
61358;SDS011;47228;46.762;23.598;2023-05-07T06:44:39;22.40;;;12.30;;
61358;SDS011;47228;46.762;23.598;2023-05-07T06:47:07;20.60;;;12.70;;
61358;SDS011;47228;46.762;23.598;2023-05-07T06:49:34;21.40;;;13.00;;
61358;SDS011;47228;46.762;23.598;2023-05-07T06:52:02;20.90;;;13.40;;
61358;SDS011;47228;46.762;23.598;2023-05-07T06:54:30;22.90;;;12.90;;
61358;SDS011;47228;46.762;23.598;2023-05-07T06:56:59;21.30;;;13.50;;
61358;SDS011;47228;46.762;23.598;2023-05-07T06:59:28;22.00;;;12.50;;
61358;SDS011;47228;46.762;23.598;2023-05-07T07:01:56;20.00;;;11.90;;
61358;SDS011;47228;46.762;23.598;2023-05-07T07:04:24;19.70;;;12.80;;
61358;SDS011;47228;46.762;23.598;2023-05-07T07:06:53;21.30;;;11.90;;
61358;SDS011;47228;46.762;23.598;2023-05-07T07:09:21;20.10;;;11.50;;
61358;SDS011;47228;46.762;23.598;2023-05-07T07:11:50;19.70;;;12.70;;
61358;SDS011;47228;46.762;23.598;2023-05-07T07:14:18;18.20;;;12.00;;
61358;SDS011;47228;46.762;23.598;2023-05-07T07:16:46;17.60;;;12.10;;
61358;SDS011;47228;46.762;23.598;2023-05-07T07:19:14;18.10;;;12.10;;
61358;SDS011;47228;46.762;23.598;2023-05-07T07:21:42;16.00;;;11.60;;
61358;SDS011;47228;46.762;23.598;2023-05-07T07:24:11;16.40;;;11.50;;
61358;SDS011;47228;46.762;23.598;2023-05-07T07:26:39;19.50;;;11.70;;
61358;SDS011;47228;46.762;23.598;2023-05-07T07:29:07;18.00;;;11.40;;
61358;SDS011;47228;46.762;23.598;2023-05-07T07:31:35;20.80;;;12.00;;
61358;SDS011;47228;46.762;23.598;2023-05-07T07:34:03;16.20;;;11.70;;
61358;SDS011;47228;46.762;23.598;2023-05-07T07:36:31;19.00;;;11.70;;
61358;SDS011;47228;46.762;23.598;2023-05-07T07:39:12;19.00;;;11.60;;
61358;SDS011;47228;46.762;23.598;2023-05-07T07:41:40;19.40;;;12.10;;
61358;SDS011;47228;46.762;23.598;2023-05-07T07:44:08;23.00;;;11.60;;
61358;SDS011;47228;46.762;23.598;2023-05-07T07:46:36;20.70;;;12.50;;
61358;SDS011;47228;46.762;23.598;2023-05-07T07:49:04;22.40;;;13.50;;
61358;SDS011;47228;46.762;23.598;2023-05-07T07:51:32;22.80;;;13.50;;
61358;SDS011;47228;46.762;23.598;2023-05-07T07:54:00;19.50;;;13.50;;
61358;SDS011;47228;46.762;23.598;2023-05-07T07:56:30;23.00;;;13.40;;
61358;SDS011;47228;46.762;23.598;2023-05-07T07:58:59;21.50;;;14.90;;
61358;SDS011;47228;46.762;23.598;2023-05-07T08:01:29;24.30;;;14.20;;
61358;SDS011;47228;46.762;23.598;2023-05-07T08:03:58;21.50;;;13.50;;
61358;SDS011;47228;46.762;23.598;2023-05-07T08:06:30;22.70;;;13.90;;
61358;SDS011;47228;46.762;23.598;2023-05-07T08:08:59;19.70;;;12.80;;
61358;SDS011;47228;46.762;23.598;2023-05-07T08:11:26;20.20;;;12.80;;
61358;SDS011;47228;46.762;23.598;2023-05-07T08:13:54;20.40;;;13.10;;
61358;SDS011;47228;46.762;23.598;2023-05-07T08:16:23;18.30;;;12.50;;
61358;SDS011;47228;46.762;23.598;2023-05-07T08:18:52;17.70;;;11.30;;
61358;SDS011;47228;46.762;23.598;2023-05-07T08:21:20;18.30;;;11.70;;
61358;SDS011;47228;46.762;23.598;2023-05-07T08:23:48;17.40;;;12.40;;
61358;SDS011;47228;46.762;23.598;2023-05-07T08:26:16;19.70;;;11.80;;
61358;SDS011;47228;46.762;23.598;2023-05-07T08:28:44;17.40;;;11.50;;
61358;SDS011;47228;46.762;23.598;2023-05-07T08:31:12;16.60;;;10.70;;
61358;SDS011;47228;46.762;23.598;2023-05-07T08:33:40;17.70;;;10.50;;
61358;SDS011;47228;46.762;23.598;2023-05-07T08:36:08;19.50;;;11.50;;
61358;SDS011;47228;46.762;23.598;2023-05-07T08:38:36;16.60;;;10.90;;
61358;SDS011;47228;46.762;23.598;2023-05-07T08:41:04;17.40;;;11.50;;
61358;SDS011;47228;46.762;23.598;2023-05-07T08:43:35;21.80;;;13.20;;
61358;SDS011;47228;46.762;23.598;2023-05-07T08:46:05;14.30;;;9.90;;
61358;SDS011;47228;46.762;23.598;2023-05-07T08:48:36;15.20;;;10.00;;
61358;SDS011;47228;46.762;23.598;2023-05-07T08:51:04;13.70;;;9.10;;
61358;SDS011;47228;46.762;23.598;2023-05-07T08:53:33;15.20;;;9.60;;
61358;SDS011;47228;46.762;23.598;2023-05-07T08:56:01;15.10;;;9.70;;
61358;SDS011;47228;46.762;23.598;2023-05-07T08:58:30;12.60;;;9.20;;
61358;SDS011;47228;46.762;23.598;2023-05-07T09:00:58;13.60;;;9.20;;
61358;SDS011;47228;46.762;23.598;2023-05-07T09:03:28;14.60;;;8.80;;
61358;SDS011;47228;46.762;23.598;2023-05-07T09:05:58;14.50;;;9.90;;
61358;SDS011;47228;46.762;23.598;2023-05-07T09:08:26;14.90;;;9.50;;
61358;SDS011;47228;46.762;23.598;2023-05-07T09:10:55;13.00;;;9.40;;
61358;SDS011;47228;46.762;23.598;2023-05-07T09:13:23;12.90;;;9.30;;
61358;SDS011;47228;46.762;23.598;2023-05-07T09:15:53;14.60;;;10.50;;
61358;SDS011;47228;46.762;23.598;2023-05-07T09:18:21;14.60;;;10.00;;
61358;SDS011;47228;46.762;23.598;2023-05-07T09:20:52;15.90;;;10.60;;
61358;SDS011;47228;46.762;23.598;2023-05-07T09:23:20;16.50;;;12.20;;
61358;SDS011;47228;46.762;23.598;2023-05-07T09:25:48;16.40;;;10.60;;
61358;SDS011;47228;46.762;23.598;2023-05-07T09:28:16;15.20;;;11.60;;
61358;SDS011;47228;46.762;23.598;2023-05-07T09:30:44;17.10;;;11.80;;
61358;SDS011;47228;46.762;23.598;2023-05-07T09:33:17;16.10;;;11.50;;
61358;SDS011;47228;46.762;23.598;2023-05-07T09:35:45;15.10;;;11.30;;
61358;SDS011;47228;46.762;23.598;2023-05-07T09:38:14;15.40;;;11.70;;
61358;SDS011;47228;46.762;23.598;2023-05-07T09:40:45;13.60;;;11.00;;
61358;SDS011;47228;46.762;23.598;2023-05-07T09:43:13;14.20;;;11.30;;
61358;SDS011;47228;46.762;23.598;2023-05-07T09:45:41;14.60;;;10.20;;
61358;SDS011;47228;46.762;23.598;2023-05-07T09:48:10;14.10;;;10.90;;
61358;SDS011;47228;46.762;23.598;2023-05-07T09:50:45;15.50;;;10.40;;
61358;SDS011;47228;46.762;23.598;2023-05-07T09:53:17;12.50;;;9.70;;
61358;SDS011;47228;46.762;23.598;2023-05-07T09:55:45;12.50;;;10.60;;
61358;SDS011;47228;46.762;23.598;2023-05-07T09:58:18;12.90;;;9.80;;
61358;SDS011;47228;46.762;23.598;2023-05-07T10:00:47;15.80;;;11.40;;
61358;SDS011;47228;46.762;23.598;2023-05-07T10:03:17;15.10;;;10.40;;
61358;SDS011;47228;46.762;23.598;2023-05-07T10:05:47;12.00;;;9.40;;
61358;SDS011;47228;46.762;23.598;2023-05-07T10:08:16;13.00;;;9.90;;
61358;SDS011;47228;46.762;23.598;2023-05-07T10:10:47;13.70;;;9.60;;
61358;SDS011;47228;46.762;23.598;2023-05-07T10:13:17;12.60;;;9.30;;
61358;SDS011;47228;46.762;23.598;2023-05-07T10:15:47;11.20;;;9.30;;
61358;SDS011;47228;46.762;23.598;2023-05-07T10:18:16;12.70;;;10.00;;
61358;SDS011;47228;46.762;23.598;2023-05-07T10:20:46;9.80;;;7.40;;
61358;SDS011;47228;46.762;23.598;2023-05-07T10:23:16;12.70;;;8.40;;
61358;SDS011;47228;46.762;23.598;2023-05-07T10:25:50;10.90;;;8.20;;
61358;SDS011;47228;46.762;23.598;2023-05-07T10:28:26;11.70;;;8.70;;
61358;SDS011;47228;46.762;23.598;2023-05-07T10:31:04;9.60;;;7.90;;
61358;SDS011;47228;46.762;23.598;2023-05-07T10:33:41;11.80;;;8.50;;
61358;SDS011;47228;46.762;23.598;2023-05-07T10:36:13;13.10;;;8.40;;
61358;SDS011;47228;46.762;23.598;2023-05-07T10:38:41;10.90;;;7.90;;
61358;SDS011;47228;46.762;23.598;2023-05-07T10:41:09;9.30;;;7.60;;
61358;SDS011;47228;46.762;23.598;2023-05-07T10:43:39;10.00;;;8.20;;
61358;SDS011;47228;46.762;23.598;2023-05-07T10:46:10;9.60;;;7.60;;
61358;SDS011;47228;46.762;23.598;2023-05-07T10:51:30;9.40;;;7.50;;
61358;SDS011;47228;46.762;23.598;2023-05-07T11:02:02;10.60;;;7.70;;
61358;SDS011;47228;46.762;23.598;2023-05-07T11:04:32;9.40;;;7.10;;
61358;SDS011;47228;46.762;23.598;2023-05-07T11:15:09;10.20;;;6.90;;
61358;SDS011;47228;46.762;23.598;2023-05-07T11:17:54;9.90;;;7.20;;
61358;SDS011;47228;46.762;23.598;2023-05-07T11:26:08;9.50;;;6.30;;
61358;SDS011;47228;46.762;23.598;2023-05-07T11:28:38;9.80;;;6.20;;
61358;SDS011;47228;46.762;23.598;2023-05-07T11:31:07;13.20;;;7.20;;
61358;SDS011;47228;46.762;23.598;2023-05-07T11:33:37;8.50;;;6.10;;
61358;SDS011;47228;46.762;23.598;2023-05-07T11:36:07;9.40;;;6.60;;
61358;SDS011;47228;46.762;23.598;2023-05-07T11:38:36;11.90;;;6.90;;
61358;SDS011;47228;46.762;23.598;2023-05-07T11:41:06;10.20;;;5.70;;
61358;SDS011;47228;46.762;23.598;2023-05-07T11:43:35;9.30;;;5.90;;
61358;SDS011;47228;46.762;23.598;2023-05-07T11:46:10;8.30;;;5.30;;
61358;SDS011;47228;46.762;23.598;2023-05-07T11:48:39;11.10;;;5.40;;
61358;SDS011;47228;46.762;23.598;2023-05-07T11:51:09;6.70;;;5.10;;
61358;SDS011;47228;46.762;23.598;2023-05-07T11:53:42;8.10;;;5.20;;
61358;SDS011;47228;46.762;23.598;2023-05-07T11:56:11;7.90;;;5.10;;
61358;SDS011;47228;46.762;23.598;2023-05-07T11:58:41;6.80;;;5.20;;
61358;SDS011;47228;46.762;23.598;2023-05-07T12:01:10;9.50;;;5.10;;
61358;SDS011;47228;46.762;23.598;2023-05-07T12:03:40;9.10;;;5.20;;
61358;SDS011;47228;46.762;23.598;2023-05-07T12:06:16;7.00;;;4.90;;
61358;SDS011;47228;46.762;23.598;2023-05-07T12:08:45;7.70;;;5.10;;
61358;SDS011;47228;46.762;23.598;2023-05-07T12:11:15;6.70;;;4.50;;
61358;SDS011;47228;46.762;23.598;2023-05-07T12:13:49;6.60;;;4.70;;
61358;SDS011;47228;46.762;23.598;2023-05-07T12:16:18;6.80;;;4.80;;
61358;SDS011;47228;46.762;23.598;2023-05-07T12:18:47;8.50;;;5.10;;
61358;SDS011;47228;46.762;23.598;2023-05-07T12:21:15;7.00;;;4.70;;
61358;SDS011;47228;46.762;23.598;2023-05-07T12:23:45;7.30;;;5.20;;
61358;SDS011;47228;46.762;23.598;2023-05-07T12:26:15;7.10;;;5.00;;
61358;SDS011;47228;46.762;23.598;2023-05-07T12:28:43;14.30;;;5.40;;
61358;SDS011;47228;46.762;23.598;2023-05-07T12:31:11;7.10;;;4.80;;
61358;SDS011;47228;46.762;23.598;2023-05-07T12:33:42;8.70;;;5.00;;
61358;SDS011;47228;46.762;23.598;2023-05-07T12:36:11;7.00;;;4.70;;
61358;SDS011;47228;46.762;23.598;2023-05-07T12:38:40;7.10;;;4.70;;
61358;SDS011;47228;46.762;23.598;2023-05-07T12:41:09;9.10;;;4.70;;
61358;SDS011;47228;46.762;23.598;2023-05-07T12:43:38;6.50;;;4.50;;
61358;SDS011;47228;46.762;23.598;2023-05-07T12:46:06;8.20;;;4.70;;
61358;SDS011;47228;46.762;23.598;2023-05-07T12:48:54;7.60;;;4.80;;
61358;SDS011;47228;46.762;23.598;2023-05-07T12:51:23;7.60;;;4.60;;
61358;SDS011;47228;46.762;23.598;2023-05-07T12:53:51;7.90;;;4.80;;
61358;SDS011;47228;46.762;23.598;2023-05-07T12:56:24;7.30;;;4.80;;
61358;SDS011;47228;46.762;23.598;2023-05-07T12:58:56;7.50;;;4.50;;
61358;SDS011;47228;46.762;23.598;2023-05-07T13:01:28;7.50;;;4.80;;
61358;SDS011;47228;46.762;23.598;2023-05-07T13:04:00;10.20;;;4.90;;
61358;SDS011;47228;46.762;23.598;2023-05-07T13:06:30;6.90;;;4.80;;
61358;SDS011;47228;46.762;23.598;2023-05-07T13:08:59;6.20;;;4.40;;
61358;SDS011;47228;46.762;23.598;2023-05-07T13:11:32;7.50;;;4.50;;
61358;SDS011;47228;46.762;23.598;2023-05-07T13:14:00;8.10;;;4.80;;
61358;SDS011;47228;46.762;23.598;2023-05-07T13:16:28;6.90;;;4.70;;
61358;SDS011;47228;46.762;23.598;2023-05-07T13:18:56;7.80;;;5.00;;
61358;SDS011;47228;46.762;23.598;2023-05-07T13:21:23;8.30;;;5.00;;
61358;SDS011;47228;46.762;23.598;2023-05-07T13:23:52;9.50;;;5.40;;
61358;SDS011;47228;46.762;23.598;2023-05-07T13:26:20;9.00;;;4.90;;
61358;SDS011;47228;46.762;23.598;2023-05-07T13:28:53;6.70;;;4.90;;
61358;SDS011;47228;46.762;23.598;2023-05-07T13:31:22;8.00;;;5.20;;
61358;SDS011;47228;46.762;23.598;2023-05-07T13:33:50;8.70;;;5.20;;
61358;SDS011;47228;46.762;23.598;2023-05-07T13:36:20;8.40;;;5.40;;
61358;SDS011;47228;46.762;23.598;2023-05-07T13:38:48;8.40;;;6.40;;
61358;SDS011;47228;46.762;23.598;2023-05-07T13:41:15;10.60;;;5.90;;
61358;SDS011;47228;46.762;23.598;2023-05-07T13:43:44;8.70;;;6.90;;
61358;SDS011;47228;46.762;23.598;2023-05-07T13:46:12;9.70;;;6.00;;
61358;SDS011;47228;46.762;23.598;2023-05-07T13:48:40;10.30;;;5.80;;
61358;SDS011;47228;46.762;23.598;2023-05-07T13:51:08;8.00;;;5.30;;
61358;SDS011;47228;46.762;23.598;2023-05-07T13:53:37;7.60;;;5.60;;
61358;SDS011;47228;46.762;23.598;2023-05-07T13:56:05;8.00;;;6.00;;
61358;SDS011;47228;46.762;23.598;2023-05-07T13:58:33;7.90;;;5.60;;
61358;SDS011;47228;46.762;23.598;2023-05-07T14:01:15;8.30;;;6.00;;
61358;SDS011;47228;46.762;23.598;2023-05-07T14:03:43;10.00;;;6.40;;
61358;SDS011;47228;46.762;23.598;2023-05-07T14:06:11;8.80;;;6.00;;
61358;SDS011;47228;46.762;23.598;2023-05-07T14:08:39;11.60;;;6.00;;
61358;SDS011;47228;46.762;23.598;2023-05-07T14:11:07;9.40;;;6.60;;
61358;SDS011;47228;46.762;23.598;2023-05-07T14:13:35;7.70;;;5.60;;
61358;SDS011;47228;46.762;23.598;2023-05-07T14:16:04;9.60;;;5.70;;
61358;SDS011;47228;46.762;23.598;2023-05-07T14:18:32;8.30;;;6.00;;
61358;SDS011;47228;46.762;23.598;2023-05-07T14:21:02;8.00;;;5.80;;
61358;SDS011;47228;46.762;23.598;2023-05-07T14:23:30;9.10;;;5.80;;
61358;SDS011;47228;46.762;23.598;2023-05-07T14:25:58;8.60;;;5.60;;
61358;SDS011;47228;46.762;23.598;2023-05-07T14:28:26;9.00;;;5.40;;
61358;SDS011;47228;46.762;23.598;2023-05-07T14:30:54;10.10;;;6.00;;
61358;SDS011;47228;46.762;23.598;2023-05-07T14:33:22;7.30;;;5.00;;
61358;SDS011;47228;46.762;23.598;2023-05-07T14:35:50;11.50;;;6.40;;
61358;SDS011;47228;46.762;23.598;2023-05-07T14:38:18;8.10;;;5.90;;
61358;SDS011;47228;46.762;23.598;2023-05-07T14:40:46;8.70;;;6.00;;
61358;SDS011;47228;46.762;23.598;2023-05-07T14:43:14;7.10;;;5.70;;
61358;SDS011;47228;46.762;23.598;2023-05-07T14:45:42;9.10;;;5.90;;
61358;SDS011;47228;46.762;23.598;2023-05-07T14:48:10;10.80;;;5.80;;
61358;SDS011;47228;46.762;23.598;2023-05-07T14:50:42;10.40;;;6.80;;